Time;durP1;ratioP1;P1;durP2;ratioP2;P2;SDS_P1;SDS_P2;PMS_P1;PMS_P2;Temp;Humidity;BMP_temperature;BMP_pressure;BME280_temperature;BME280_humidity;BME280_pressure;Samples;Min_cycle;Max_cycle;Signal;HPM_P1;HPM_P2
2023/01/21 00:02:39;;;;;;;97.70;44.40;;;;;;;-0.74;79.77;100580.05;129849;1272;114785;-65
2023/01/21 00:05:42;;;;;;;101.90;45.50;;;;;;;-0.74;79.64;100583.73;129857;1278;114719;-68
2023/01/21 00:08:44;;;;;;;96.60;44.30;;;;;;;-0.75;79.86;100587.08;129845;1278;114737;-68
2023/01/21 00:11:47;;;;;;;95.40;43.40;;;;;;;-0.73;79.60;100575.14;129906;1257;115634;-68
2023/01/21 00:14:49;;;;;;;94.70;45.70;;;;;;;-0.73;79.66;100572.86;129879;1257;128915;-67
2023/01/21 00:18:17;;;;;;;97.10;44.00;;;;;;;-0.72;79.61;100575.15;129788;1278;115272;-59
2023/01/21 00:21:20;;;;;;;105.80;42.40;;;;;;;-0.71;79.58;100573.75;129864;1259;114814;-64
2023/01/21 00:24:23;;;;;;;92.10;40.40;;;;;;;-0.72;79.78;100572.88;129864;1257;114766;-60
2023/01/21 00:27:26;;;;;;;83.00;37.30;;;;;;;-0.72;79.66;100575.85;129869;1262;114762;-65
2023/01/21 00:30:29;;;;;;;83.90;38.40;;;;;;;-0.69;79.75;100576.91;130049;1278;114737;-62
2023/01/21 00:33:42;;;;;;;87.60;41.60;;;;;;;-0.65;79.72;100584.10;129711;1258;115295;-62
2023/01/21 00:36:44;;;;;;;90.50;40.90;;;;;;;-0.63;79.61;100590.59;129823;1259;114779;-64
2023/01/21 00:39:47;;;;;;;92.50;41.10;;;;;;;-0.60;79.71;100596.22;129950;1278;114732;-68
2023/01/21 00:42:49;;;;;;;92.80;43.40;;;;;;;-0.59;79.57;100605.69;130000;1278;114795;-69
2023/01/21 00:45:52;;;;;;;100.90;45.40;;;;;;;-0.60;79.54;100607.27;129537;1261;114827;-66
2023/01/21 00:48:55;;;;;;;101.60;46.50;;;;;;;-0.65;79.48;100605.85;129828;1278;114735;-68
2023/01/21 00:51:57;;;;;;;102.60;43.60;;;;;;;-0.68;79.60;100601.82;129925;1277;114721;-64
2023/01/21 00:54:59;;;;;;;101.30;42.40;;;;;;;-0.69;79.66;100602.17;130063;1257;114743;-67
2023/01/21 00:58:02;;;;;;;94.20;39.70;;;;;;;-0.72;79.85;100599.17;129899;1262;114835;-63
2023/01/21 01:01:13;;;;;;;93.00;40.70;;;;;;;-0.70;79.81;100606.38;130025;1260;114708;-68
2023/01/21 01:04:15;;;;;;;96.00;42.00;;;;;;;-0.66;79.95;100612.88;129710;1271;114917;-66
2023/01/21 01:07:18;;;;;;;99.00;42.20;;;;;;;-0.63;79.87;100613.76;130079;1254;115164;-67
2023/01/21 01:10:20;;;;;;;100.10;44.00;;;;;;;-0.57;80.02;100615.33;130107;1277;114752;-62
2023/01/21 01:13:23;;;;;;;102.50;46.20;;;;;;;-0.54;79.78;100607.63;130065;1277;115093;-67
2023/01/21 01:16:25;;;;;;;98.40;45.00;;;;;;;-0.52;79.93;100613.23;130019;1256;114785;-66
2023/01/21 01:19:28;;;;;;;107.30;46.70;;;;;;;-0.51;79.83;100612.55;129757;1278;114738;-66
2023/01/21 01:22:30;;;;;;;100.70;44.10;;;;;;;-0.51;79.84;100610.26;129883;1275;114853;-65
2023/01/21 01:25:34;;;;;;;97.90;42.10;;;;;;;-0.55;79.81;100613.94;130008;1253;115429;-68
2023/01/21 01:28:37;;;;;;;105.00;41.60;;;;;;;-0.58;79.96;100608.85;129687;1253;128006;-66
2023/01/21 01:31:39;;;;;;;88.60;37.80;;;;;;;-0.56;79.89;100613.77;129935;1277;114756;-66
2023/01/21 01:34:42;;;;;;;88.40;33.50;;;;;;;-0.54;79.85;100608.50;129952;1254;115304;-67
2023/01/21 01:37:44;;;;;;;97.80;37.10;;;;;;;-0.52;79.92;100610.27;129977;1256;115087;-64
2023/01/21 01:40:49;;;;;;;98.90;41.40;;;;;;;-0.50;79.76;100607.80;129756;1277;114838;-63
2023/01/21 01:43:59;;;;;;;93.80;39.20;;;;;;;-0.50;79.98;100614.46;129993;1274;114749;-67
2023/01/21 01:47:03;;;;;;;103.60;41.10;;;;;;;-0.50;79.93;100621.48;129997;1253;128809;-68
2023/01/21 01:50:09;;;;;;;95.30;39.10;;;;;;;-0.53;79.96;100615.35;130024;1256;115244;-65
2023/01/21 01:53:11;;;;;;;105.10;41.10;;;;;;;-0.53;80.04;100611.83;129613;1260;114835;-65
2023/01/21 01:56:14;;;;;;;93.00;39.40;;;;;;;-0.55;80.05;100610.96;129784;1263;115122;-68
2023/01/21 01:59:17;;;;;;;99.80;41.10;;;;;;;-0.56;80.20;100615.52;129756;1278;115266;-61
2023/01/21 02:02:20;;;;;;;99.70;38.10;;;;;;;-0.59;80.09;100613.23;129905;1278;114745;-69
2023/01/21 02:05:22;;;;;;;89.90;36.50;;;;;;;-0.59;80.34;100606.39;129818;1259;115092;-67
2023/01/21 02:08:25;;;;;;;91.60;38.10;;;;;;;-0.58;80.40;100609.02;129925;1259;114684;-63
2023/01/21 02:11:27;;;;;;;91.50;39.00;;;;;;;-0.60;80.34;100605.52;129525;1271;114904;-66
2023/01/21 02:14:31;;;;;;;91.60;38.00;;;;;;;-0.59;80.55;100603.77;130078;1278;114706;-64
2023/01/21 02:17:58;;;;;;;83.30;36.00;;;;;;;-0.57;80.49;100598.85;129940;1259;114724;-65
2023/01/21 02:21:19;;;;;;;85.20;35.50;;;;;;;-0.57;80.33;100594.63;129718;1259;128326;-66
2023/01/21 02:24:34;;;;;;;88.60;36.70;;;;;;;-0.59;80.53;100592.88;129838;1278;115291;-67
2023/01/21 02:27:56;;;;;;;86.40;38.40;;;;;;;-0.59;80.69;100593.06;129634;1261;114815;-66
2023/01/21 02:31:05;;;;;;;80.00;33.00;;;;;;;-0.61;80.61;100595.70;129738;1263;114927;-62
2023/01/21 02:34:19;;;;;;;75.20;32.60;;;;;;;-0.62;80.68;100596.91;129604;1278;116422;-66
2023/01/21 02:38:02;;;;;;;78.60;33.10;;;;;;;-0.61;80.60;100589.02;129768;1259;128769;-66
2023/01/21 02:41:29;;;;;;;70.80;32.70;;;;;;;-0.60;80.65;100588.31;129964;1259;115257;-66
2023/01/21 02:44:38;;;;;;;70.20;31.40;;;;;;;-0.59;80.76;100592.54;129824;1256;115390;-66
2023/01/21 02:48:29;;;;;;;69.50;30.70;;;;;;;-0.57;80.53;100594.63;129635;1262;115422;-64
2023/01/21 02:51:31;;;;;;;63.40;28.50;;;;;;;-0.58;80.73;100596.21;129080;1286;114841;-67
2023/01/21 02:54:40;;;;;;;63.40;27.60;;;;;;;-0.61;80.44;100595.52;129155;1284;115036;-65
2023/01/21 02:57:55;;;;;;;60.90;28.30;;;;;;;-0.64;80.56;100591.81;129335;1268;115184;-63
2023/01/21 03:01:12;;;;;;;60.50;26.20;;;;;;;-0.65;80.81;100591.45;129257;1285;114916;-66
2023/01/21 03:04:40;;;;;;;51.40;24.30;;;;;;;-0.64;80.99;100592.69;129225;1266;115040;-65
2023/01/21 03:07:47;;;;;;;46.30;23.20;;;;;;;-0.61;80.70;100596.91;129112;1266;114914;-68
2023/01/21 03:11:10;;;;;;;52.00;22.40;;;;;;;-0.61;80.72;100594.11;129079;1270;127861;-69
2023/01/21 03:18:07;;;;;;;51.20;23.20;;;;;;;-0.60;80.73;100588.85;129205;1268;114931;-67
2023/01/21 03:21:14;;;;;;;53.70;24.50;;;;;;;-0.59;80.70;100581.66;129306;1266;114939;-67
2023/01/21 03:24:17;;;;;;;56.30;25.00;;;;;;;-0.59;80.86;100583.23;129181;1264;115390;-68
2023/01/21 03:27:23;;;;;;;61.00;25.60;;;;;;;-0.62;80.87;100583.93;129032;1268;114771;-66
2023/01/21 03:30:27;;;;;;;49.70;22.30;;;;;;;-0.64;80.96;100579.71;129502;1278;115346;-67
2023/01/21 03:33:32;;;;;;;52.70;24.00;;;;;;;-0.65;80.94;100580.77;129591;1265;114804;-67
2023/01/21 03:36:44;;;;;;;55.80;24.60;;;;;;;-0.63;81.02;100577.44;129890;1278;114720;-67
2023/01/21 03:40:13;;;;;;;54.80;26.60;;;;;;;-0.62;80.78;100581.30;129594;1255;115313;-67
2023/01/21 03:43:16;;;;;;;64.40;26.50;;;;;;;-0.62;81.08;100572.36;129416;1278;126706;-61
2023/01/21 03:46:41;;;;;;;56.60;26.90;;;;;;;-0.61;80.97;100578.32;129868;1259;114770;-61
2023/01/21 03:49:49;;;;;;;54.90;25.50;;;;;;;-0.63;81.08;100574.47;129578;1265;114971;-66
2023/01/21 03:52:52;;;;;;;61.30;27.20;;;;;;;-0.63;80.90;100576.55;129795;1259;115309;-66
2023/01/21 03:55:54;;;;;;;58.20;26.60;;;;;;;-0.64;81.00;100576.02;129774;1278;115284;-66
2023/01/21 03:58:57;;;;;;;61.80;26.70;;;;;;;-0.67;81.15;100569.55;129757;1278;114798;-61
2023/01/21 04:01:59;;;;;;;57.20;26.00;;;;;;;-0.66;81.17;100574.28;129841;1259;114732;-64
2023/01/21 04:05:01;;;;;;;59.10;24.10;;;;;;;-0.67;81.11;100564.30;129978;1259;114740;-64
2023/01/21 04:08:04;;;;;;;52.50;24.70;;;;;;;-0.64;81.08;100569.37;129553;1278;114801;-59
2023/01/21 04:11:07;;;;;;;57.20;25.00;;;;;;;-0.62;81.06;100564.30;129887;1267;114739;-61
2023/01/21 04:14:09;;;;;;;53.50;25.10;;;;;;;-0.60;81.11;100561.84;130004;1259;114795;-61
2023/01/21 04:17:11;;;;;;;61.00;29.60;;;;;;;-0.58;81.21;100556.58;129991;1259;114712;-60
2023/01/21 04:20:14;;;;;;;55.80;26.00;;;;;;;-0.57;80.95;100554.98;129981;1253;114744;-62
2023/01/21 04:23:18;;;;;;;55.00;25.70;;;;;;;-0.55;81.05;100555.16;129624;1261;115204;-63
2023/01/21 04:26:20;;;;;;;59.90;27.30;;;;;;;-0.53;81.16;100550.25;130085;1273;114702;-66
2023/01/21 04:29:23;;;;;;;55.40;24.20;;;;;;;-0.55;81.15;100549.73;130032;1259;114848;-66
2023/01/21 04:32:26;;;;;;;51.60;22.70;;;;;;;-0.58;81.02;100544.12;129901;1277;114795;-63
2023/01/21 04:35:28;;;;;;;48.60;23.40;;;;;;;-0.58;81.20;100543.95;129959;1260;114725;-65
2023/01/21 04:38:31;;;;;;;51.50;22.90;;;;;;;-0.56;81.07;100542.71;130027;1259;114774;-64
2023/01/21 04:41:33;;;;;;;50.60;25.70;;;;;;;-0.54;81.25;100538.49;129939;1277;115312;-66
2023/01/21 04:44:36;;;;;;;51.00;25.20;;;;;;;-0.52;81.34;100532.73;129927;1277;115129;-65
2023/01/21 04:47:42;;;;;;;48.90;24.60;;;;;;;-0.49;81.32;100534.10;129768;1257;114720;-62
2023/01/21 04:50:45;;;;;;;54.80;25.30;;;;;;;-0.47;81.30;100533.75;129568;1278;114766;-64
2023/01/21 04:53:48;;;;;;;50.80;25.90;;;;;;;-0.46;81.42;100534.63;129725;1275;114738;-65
2023/01/21 04:56:50;;;;;;;54.10;27.30;;;;;;;-0.43;81.47;100536.91;129648;1279;115097;-66
2023/01/21 04:59:52;;;;;;;49.70;25.40;;;;;;;-0.42;81.41;100536.57;129904;1256;114736;-64
2023/01/21 05:02:54;;;;;;;53.30;24.50;;;;;;;-0.41;81.56;100535.67;129416;1279;114864;-62
2023/01/21 05:05:57;;;;;;;48.90;22.40;;;;;;;-0.40;81.30;100533.58;129628;1256;114712;-62
2023/01/21 05:08:59;;;;;;;40.60;21.90;;;;;;;-0.39;81.28;100535.85;129675;1262;114751;-65
2023/01/21 05:12:02;;;;;;;44.80;22.40;;;;;;;-0.36;81.41;100539.02;129863;1278;114781;-64
2023/01/21 05:15:05;;;;;;;49.50;24.50;;;;;;;-0.34;81.39;100536.03;129633;1257;127940;-62
2023/01/21 05:18:07;;;;;;;46.50;24.20;;;;;;;-0.32;81.39;100533.22;129577;1256;115257;-60
2023/01/21 05:21:11;;;;;;;49.50;24.80;;;;;;;-0.30;81.59;100533.91;129790;1259;114745;-64
2023/01/21 05:24:13;;;;;;;48.90;24.70;;;;;;;-0.31;81.47;100532.17;129819;1259;114793;-61
2023/01/21 05:27:15;;;;;;;49.70;25.40;;;;;;;-0.30;81.75;100529.70;129870;1256;116325;-59
2023/01/21 05:30:17;;;;;;;49.30;23.90;;;;;;;-0.31;81.57;100524.61;129712;1278;115537;-61
2023/01/21 05:33:24;;;;;;;43.20;21.60;;;;;;;-0.33;81.52;100524.27;129791;1257;114788;-62
2023/01/21 05:36:27;;;;;;;42.00;21.00;;;;;;;-0.31;81.72;100522.16;129488;1272;115030;-60
2023/01/21 05:39:29;;;;;;;43.70;21.80;;;;;;;-0.25;81.68;100520.23;129747;1270;114806;-62
2023/01/21 05:42:32;;;;;;;41.20;22.00;;;;;;;-0.23;81.55;100514.07;129733;1259;114771;-66
2023/01/21 05:45:34;;;;;;;43.40;22.80;;;;;;;-0.21;81.67;100515.66;129766;1278;115322;-66
2023/01/21 05:48:36;;;;;;;47.60;23.00;;;;;;;-0.18;81.88;100519.17;129553;1262;114905;-66
2023/01/21 05:51:38;;;;;;;43.40;22.20;;;;;;;-0.16;81.85;100517.76;129771;1278;115102;-65
2023/01/21 05:54:40;;;;;;;43.70;22.70;;;;;;;-0.14;81.70;100512.48;129939;1277;114790;-66
2023/01/21 05:57:46;;;;;;;45.80;22.20;;;;;;;-0.13;81.79;100510.90;129559;1277;115249;-65
2023/01/21 06:00:48;;;;;;;37.20;19.30;;;;;;;-0.13;81.69;100503.88;129669;1254;114901;-66
2023/01/21 06:03:51;;;;;;;35.60;18.30;;;;;;;-0.11;81.56;100504.05;129978;1259;115942;-65
2023/01/21 06:06:53;;;;;;;42.00;20.50;;;;;;;-0.08;81.67;100498.59;129932;1259;115007;-65
2023/01/21 06:09:55;;;;;;;42.20;22.00;;;;;;;-0.07;81.74;100494.90;129996;1259;114739;-63
2023/01/21 06:12:58;;;;;;;42.30;21.40;;;;;;;-0.07;81.73;100493.15;130116;1254;127947;-65
2023/01/21 06:16:00;;;;;;;39.90;21.80;;;;;;;-0.07;81.66;100495.79;130165;1258;114766;-65
2023/01/21 06:19:02;;;;;;;41.40;22.00;;;;;;;-0.07;81.70;100490.86;130046;1257;114792;-65
2023/01/21 06:22:05;;;;;;;43.30;22.30;;;;;;;-0.07;81.80;100492.27;129889;1275;115448;-66
2023/01/21 06:25:08;;;;;;;39.40;21.70;;;;;;;-0.08;81.85;100487.54;130007;1272;114717;-65
2023/01/21 06:28:11;;;;;;;40.50;20.30;;;;;;;-0.11;81.79;100485.62;129875;1267;115227;-65
2023/01/21 06:31:13;;;;;;;38.30;19.20;;;;;;;-0.12;81.88;100487.02;129932;1260;114745;-66
2023/01/21 06:34:15;;;;;;;41.40;18.80;;;;;;;-0.10;81.95;100486.49;129974;1277;114780;-65
2023/01/21 06:37:18;;;;;;;41.20;20.10;;;;;;;-0.06;81.99;100477.17;130043;1259;115365;-65
2023/01/21 06:40:20;;;;;;;38.50;19.30;;;;;;;-0.02;82.04;100475.77;129976;1263;114811;-65
2023/01/21 06:43:23;;;;;;;44.30;21.00;;;;;;;-0.01;81.99;100473.13;129808;1272;114740;-65
2023/01/21 06:46:25;;;;;;;37.60;19.90;;;;;;;0.00;81.77;100466.97;129947;1278;114706;-65
2023/01/21 06:49:27;;;;;;;37.20;19.00;;;;;;;0.01;81.94;100471.71;130005;1257;115349;-65
2023/01/21 06:52:30;;;;;;;37.20;18.50;;;;;;;0.03;81.99;100470.13;129795;1257;126318;-65
2023/01/21 06:55:32;;;;;;;40.60;19.50;;;;;;;0.04;82.01;100475.91;129912;1259;115328;-62
2023/01/21 06:58:34;;;;;;;32.00;17.50;;;;;;;0.03;82.06;100477.67;129871;1259;114720;-64
2023/01/21 07:01:37;;;;;;;32.40;15.80;;;;;;;0.05;82.03;100477.48;129964;1259;114725;-64
2023/01/21 07:04:40;;;;;;;29.70;16.70;;;;;;;0.09;81.90;100481.52;129860;1259;114811;-64
2023/01/21 07:07:42;;;;;;;26.70;15.80;;;;;;;0.11;81.86;100484.33;129883;1278;114789;-65
2023/01/21 07:10:44;;;;;;;29.90;16.50;;;;;;;0.12;82.13;100479.92;129915;1278;115125;-65
2023/01/21 07:13:47;;;;;;;28.90;16.00;;;;;;;0.12;81.83;100483.09;129806;1278;114742;-65
2023/01/21 07:16:49;;;;;;;29.50;17.50;;;;;;;0.13;81.96;100485.02;129887;1259;115248;-65
2023/01/21 07:19:51;;;;;;;31.60;17.10;;;;;;;0.16;81.95;100489.40;129891;1259;114765;-65
2023/01/21 07:22:53;;;;;;;28.20;17.40;;;;;;;0.17;81.73;100484.12;129719;1278;114805;-66
2023/01/21 07:25:57;;;;;;;30.20;17.30;;;;;;;0.18;81.87;100486.05;130015;1259;114734;-65
2023/01/21 07:29:00;;;;;;;29.40;16.70;;;;;;;0.19;81.96;100486.39;129662;1259;114904;-67
2023/01/21 07:32:04;;;;;;;31.20;16.60;;;;;;;0.20;81.86;100485.86;130068;1260;114734;-61
2023/01/21 07:35:07;;;;;;;32.80;16.00;;;;;;;0.24;81.92;100484.80;129999;1262;115177;-65
2023/01/21 07:38:09;;;;;;;26.30;15.10;;;;;;;0.27;81.94;100483.19;129967;1259;115414;-65
2023/01/21 07:41:12;;;;;;;25.00;14.30;;;;;;;0.29;81.91;100480.04;129808;1278;247795;-65
2023/01/21 07:44:14;;;;;;;28.40;14.60;;;;;;;0.33;81.98;100476.14;129793;1278;114734;-66
2023/01/21 07:47:17;;;;;;;29.60;16.00;;;;;;;0.36;81.84;100474.02;129857;1278;114783;-66
2023/01/21 07:50:20;;;;;;;28.50;15.30;;;;;;;0.36;81.84;100465.77;129588;1257;127279;-63
2023/01/21 07:53:22;;;;;;;25.10;13.50;;;;;;;0.35;81.76;100464.02;129960;1267;114849;-65
2023/01/21 07:56:26;;;;;;;21.60;12.60;;;;;;;0.33;82.13;100464.38;129722;1259;114987;-65
2023/01/21 07:59:28;;;;;;;24.10;11.90;;;;;;;0.33;82.00;100460.70;129678;1259;115221;-68
2023/01/21 08:02:31;;;;;;;19.90;12.00;;;;;;;0.33;81.99;100453.66;129840;1268;114721;-65
2023/01/21 08:05:33;;;;;;;27.90;15.50;;;;;;;0.36;82.00;100445.91;129808;1278;115410;-69
2023/01/21 08:08:35;;;;;;;23.20;13.10;;;;;;;0.38;81.93;100443.98;129736;1259;128055;-64
2023/01/21 08:11:37;;;;;;;21.40;12.40;;;;;;;0.39;82.23;100449.05;129789;1259;114931;-63
2023/01/21 08:14:40;;;;;;;22.60;13.40;;;;;;;0.39;81.99;100447.84;129869;1278;114796;-66
2023/01/21 08:17:43;;;;;;;24.80;14.70;;;;;;;0.41;82.25;100449.23;129950;1257;115380;-65
2023/01/21 08:20:46;;;;;;;23.60;13.30;;;;;;;0.43;82.21;100456.59;129864;1259;114725;-64
2023/01/21 08:23:48;;;;;;;25.70;13.50;;;;;;;0.42;82.18;100452.90;129784;1259;115298;-64
2023/01/21 08:26:51;;;;;;;27.90;13.70;;;;;;;0.43;82.24;100463.09;129781;1259;114709;-65
2023/01/21 08:29:53;;;;;;;22.70;12.80;;;;;;;0.46;82.42;100476.44;129869;1260;114727;-63
2023/01/21 08:32:56;;;;;;;28.20;14.40;;;;;;;0.49;82.33;100487.67;129859;1258;115225;-65
2023/01/21 08:36:06;;;;;;;23.10;13.50;;;;;;;0.48;82.70;100499.63;129577;1260;114800;-65
2023/01/21 08:39:14;;;;;;;29.90;16.50;;;;;;;0.49;82.49;100505.23;129644;1264;115183;-65
2023/01/21 08:42:17;;;;;;;30.70;17.40;;;;;;;0.51;82.66;100505.05;129570;1265;114713;-64
2023/01/21 08:45:20;;;;;;;22.60;13.60;;;;;;;0.57;83.06;100508.89;129650;1276;114779;-65
2023/01/21 08:48:22;;;;;;;20.80;13.00;;;;;;;0.61;82.81;100506.75;129951;1278;114753;-62
2023/01/21 08:51:25;;;;;;;15.40;9.70;;;;;;;0.66;82.92;100511.83;130062;1259;114747;-67
2023/01/21 08:54:27;;;;;;;14.00;9.70;;;;;;;0.70;82.78;100511.63;129968;1259;114745;-62
2023/01/21 08:57:30;;;;;;;19.20;10.30;;;;;;;0.76;82.80;100510.90;130086;1260;114783;-66
2023/01/21 09:00:33;;;;;;;18.30;11.60;;;;;;;0.79;82.95;100514.05;129915;1277;114745;-63
2023/01/21 09:03:36;;;;;;;16.60;10.30;;;;;;;0.83;82.98;100513.84;129862;1274;114821;-67
2023/01/21 09:06:40;;;;;;;17.70;9.90;;;;;;;0.85;82.67;100517.69;130054;1277;114824;-66
2023/01/21 09:09:42;;;;;;;15.70;10.20;;;;;;;0.89;82.79;100512.05;129974;1278;115234;-66
2023/01/21 09:12:45;;;;;;;18.30;11.00;;;;;;;0.95;82.70;100514.11;130095;1258;114803;-61
2023/01/21 09:15:48;;;;;;;15.00;9.10;;;;;;;0.98;83.05;100510.23;130296;1259;114881;-61
2023/01/21 09:18:50;;;;;;;15.60;8.80;;;;;;;1.01;83.03;100505.63;129898;1262;114734;-63
2023/01/21 09:21:54;;;;;;;19.00;10.00;;;;;;;1.06;82.61;100507.70;130047;1260;114734;-66
2023/01/21 09:24:56;;;;;;;16.00;9.60;;;;;;;1.09;82.76;100506.80;129946;1260;114717;-65
2023/01/21 09:27:59;;;;;;;15.40;9.30;;;;;;;1.13;82.89;100501.16;129974;1254;115207;-65
2023/01/21 09:31:07;;;;;;;14.20;9.20;;;;;;;1.18;83.01;100502.69;130036;1277;114748;-62
2023/01/21 09:34:10;;;;;;;17.30;9.80;;;;;;;1.21;83.07;100493.52;129837;1259;114718;-62
2023/01/21 09:37:12;;;;;;;16.70;9.50;;;;;;;1.28;83.22;100487.48;129611;1259;128002;-63
2023/01/21 09:40:16;;;;;;;14.20;9.10;;;;;;;1.36;83.05;100489.35;129835;1275;114740;-65
2023/01/21 09:43:24;;;;;;;17.10;10.60;;;;;;;1.41;82.95;100484.57;129978;1259;114729;-64
2023/01/21 09:46:51;;;;;;;13.30;7.60;;;;;;;1.44;82.94;100482.41;130011;1260;115418;-66
2023/01/21 09:49:56;;;;;;;11.50;7.90;;;;;;;1.49;82.99;100475.86;129824;1263;114855;-66
2023/01/21 09:53:05;;;;;;;16.60;9.50;;;;;;;1.55;82.80;100465.78;129608;1277;128323;-66
2023/01/21 09:56:34;;;;;;;17.00;8.70;;;;;;;1.61;82.63;100464.30;129752;1277;115262;-63
2023/01/21 09:59:45;;;;;;;24.90;11.20;;;;;;;1.66;82.83;100464.09;129997;1260;114802;-62
2023/01/21 10:03:32;;;;;;;11.90;8.00;;;;;;;1.64;82.68;100459.52;129709;1267;115410;-63
2023/01/21 10:07:19;;;;;;;11.80;7.70;;;;;;;1.66;82.71;100454.39;129223;1274;114833;-66
2023/01/21 10:10:48;;;;;;;11.10;7.40;;;;;;;1.74;82.93;100452.38;129168;1266;128467;-65
2023/01/21 10:14:09;;;;;;;10.70;6.80;;;;;;;1.76;82.74;100443.02;129309;1284;115350;-66
2023/01/21 10:17:18;;;;;;;8.50;6.10;;;;;;;1.81;82.77;100443.84;129257;1284;115157;-63
2023/01/21 10:20:25;;;;;;;11.10;6.70;;;;;;;1.77;82.51;100443.70;129329;1284;114800;-63
2023/01/21 10:24:01;;;;;;;13.80;8.40;;;;;;;1.78;82.67;100447.58;129386;1284;114736;-68
2023/01/21 10:27:04;;;;;;;18.00;8.40;;;;;;;1.76;82.42;100445.30;128656;1274;129497;-65
2023/01/21 10:30:34;;;;;;;13.30;7.30;;;;;;;1.79;82.60;100440.17;128850;1271;114873;-66
2023/01/21 10:33:37;;;;;;;14.10;7.60;;;;;;;1.85;82.69;100436.58;128852;1271;114890;-66
2023/01/21 10:37:06;;;;;;;16.00;8.40;;;;;;;1.87;82.54;100433.04;128845;1273;115118;-67
2023/01/21 10:40:16;;;;;;;9.90;6.10;;;;;;;1.86;82.12;100433.39;128391;1279;115237;-67
2023/01/21 10:43:49;;;;;;;9.20;6.40;;;;;;;1.85;82.43;100434.64;128814;1290;127982;-67
2023/01/21 10:47:21;;;;;;;8.60;6.00;;;;;;;1.89;82.40;100437.79;128646;1290;116296;-64
2023/01/21 10:50:30;;;;;;;8.40;5.10;;;;;;;1.85;82.54;100429.20;128256;1277;114944;-66
2023/01/21 10:53:51;;;;;;;15.20;7.90;;;;;;;1.83;81.95;100430.27;128547;1280;114870;-65
2023/01/21 10:56:56;;;;;;;12.10;5.70;;;;;;;1.79;82.09;100433.66;128481;1296;114940;-63
2023/01/21 10:59:59;;;;;;;10.90;6.20;;;;;;;1.79;82.28;100427.31;127999;1296;128676;-62
2023/01/21 11:03:12;;;;;;;16.50;7.10;;;;;;;1.86;82.25;100426.34;128540;1290;115278;-66
2023/01/21 11:06:16;;;;;;;13.30;6.80;;;;;;;1.92;82.32;100430.16;128759;1282;114897;-64
2023/01/21 11:09:18;;;;;;;19.30;7.80;;;;;;;1.94;82.66;100421.85;128826;1272;114868;-65
2023/01/21 11:12:22;;;;;;;9.00;5.70;;;;;;;2.01;82.15;100421.60;128657;1289;114943;-62
2023/01/21 11:15:26;;;;;;;10.50;5.50;;;;;;;2.05;82.07;100414.86;128755;1290;114825;-66
2023/01/21 11:18:31;;;;;;;12.30;6.40;;;;;;;2.08;81.84;100417.98;129171;1281;114990;-67
2023/01/21 11:21:34;;;;;;;11.60;6.00;;;;;;;2.04;81.70;100421.38;129419;1280;114812;-64
2023/01/21 11:24:47;;;;;;;9.50;5.60;;;;;;;2.00;81.77;100420.55;129406;1282;114848;-67
2023/01/21 11:27:50;;;;;;;7.00;4.50;;;;;;;1.95;81.68;100417.96;129574;1278;114906;-63
2023/01/21 11:31:22;;;;;;;15.90;8.40;;;;;;;1.97;82.15;100422.70;129959;1278;114764;-65
2023/01/21 11:34:24;;;;;;;6.80;4.30;;;;;;;1.96;81.99;100420.77;129884;1277;115278;-62
2023/01/21 11:37:28;;;;;;;7.60;5.50;;;;;;;1.88;81.68;100419.64;129923;1256;115181;-66
2023/01/21 11:40:30;;;;;;;6.90;4.50;;;;;;;1.82;81.78;100419.35;129984;1257;114968;-62
2023/01/21 11:43:44;;;;;;;8.20;5.80;;;;;;;1.77;81.74;100419.59;129920;1276;115177;-66
2023/01/21 11:46:46;;;;;;;8.80;4.70;;;;;;;1.72;81.59;100418.77;129969;1277;128647;-65
2023/01/21 11:49:49;;;;;;;7.70;4.80;;;;;;;1.67;81.86;100421.63;129718;1260;114796;-65
2023/01/21 11:53:16;;;;;;;9.90;6.30;;;;;;;1.65;81.85;100420.25;129965;1277;114964;-64
2023/01/21 11:56:19;;;;;;;10.50;5.80;;;;;;;1.59;81.98;100418.73;129720;1263;115150;-65
2023/01/21 11:59:23;;;;;;;7.90;5.20;;;;;;;1.54;81.97;100415.62;129923;1258;114726;-64
2023/01/21 12:02:30;;;;;;;9.30;5.70;;;;;;;1.51;82.11;100415.98;129676;1277;127661;-63
2023/01/21 12:05:38;;;;;;;8.60;5.10;;;;;;;1.49;81.83;100417.95;129923;1278;115236;-65
2023/01/21 12:08:40;;;;;;;9.90;6.10;;;;;;;1.53;81.92;100418.09;129628;1264;114817;-63
2023/01/21 12:11:48;;;;;;;10.10;5.70;;;;;;;1.55;81.81;100418.96;130018;1257;114758;-65
2023/01/21 12:14:53;;;;;;;12.70;7.20;;;;;;;1.48;81.65;100416.04;129994;1254;114845;-64
2023/01/21 12:18:27;;;;;;;10.20;5.50;;;;;;;1.44;81.89;100418.36;129812;1261;128324;-65
2023/01/21 12:21:52;;;;;;;6.90;5.50;;;;;;;1.41;82.13;100409.07;129917;1278;115169;-65
2023/01/21 12:25:24;;;;;;;9.20;6.00;;;;;;;1.36;81.92;100407.36;129669;1271;114788;-65
2023/01/21 12:28:55;;;;;;;14.20;7.80;;;;;;;1.35;82.06;100403.86;130059;1261;115406;-66
2023/01/21 12:32:03;;;;;;;10.20;6.30;;;;;;;1.32;82.25;100397.55;129645;1261;115019;-66
2023/01/21 12:35:09;;;;;;;7.90;5.60;;;;;;;1.32;82.21;100398.61;129852;1259;129226;-66
2023/01/21 12:38:37;;;;;;;5.30;3.80;;;;;;;1.32;82.09;100393.15;129872;1261;115232;-66
2023/01/21 12:41:41;;;;;;;7.60;5.20;;;;;;;1.34;82.47;100394.00;129581;1263;114757;-63
2023/01/21 12:44:51;;;;;;;11.70;7.40;;;;;;;1.35;82.17;100389.06;129609;1257;114847;-61
2023/01/21 12:48:12;;;;;;;8.70;5.70;;;;;;;1.40;82.57;100390.42;129962;1278;114801;-64
2023/01/21 12:51:42;;;;;;;7.70;4.90;;;;;;;1.40;82.26;100393.06;129549;1278;128659;-65
2023/01/21 12:54:52;;;;;;;8.50;6.30;;;;;;;1.38;82.29;100391.84;129437;1260;115502;-66
2023/01/21 12:57:55;;;;;;;8.20;6.50;;;;;;;1.38;82.56;100392.91;130008;1260;114821;-66
2023/01/21 13:01:03;;;;;;;7.60;5.70;;;;;;;1.39;82.42;100390.42;130001;1278;114830;-67
2023/01/21 13:04:17;;;;;;;11.10;7.60;;;;;;;1.41;82.58;100391.13;129851;1278;114818;-67
2023/01/21 13:07:41;;;;;;;12.70;5.90;;;;;;;1.40;82.50;100389.20;129725;1263;127022;-66
2023/01/21 13:10:52;;;;;;;8.50;5.80;;;;;;;1.43;82.17;100387.75;129816;1278;115482;-67
2023/01/21 13:14:16;;;;;;;7.50;5.20;;;;;;;1.47;82.72;100388.42;129651;1256;114815;-68
2023/01/21 13:17:22;;;;;;;12.50;9.60;;;;;;;1.49;82.47;100388.39;129677;1271;115032;-63
2023/01/21 13:20:25;;;;;;;;;;;;;;;1.47;82.17;100390.52;129347;1257;114844;-60
2023/01/21 13:23:43;;;;;;;9.10;6.80;;;;;;;1.38;81.90;100389.20;130125;1264;114859;-65
2023/01/21 13:26:46;;;;;;;11.00;6.70;;;;;;;1.37;82.42;100391.86;129970;1278;115355;-67
2023/01/21 13:30:13;;;;;;;8.30;6.00;;;;;;;1.39;82.14;100391.48;130031;1268;114699;-66
2023/01/21 13:33:23;;;;;;;10.30;6.30;;;;;;;1.31;82.42;100393.15;129664;1263;114945;-67
2023/01/21 13:36:48;;;;;;;10.10;7.10;;;;;;;1.27;82.33;100397.59;129868;1258;114744;-65
2023/01/21 13:40:09;;;;;;;11.00;7.40;;;;;;;1.23;82.55;100397.64;129589;1270;127020;-66
2023/01/21 13:43:23;;;;;;;10.50;5.50;;;;;;;1.24;82.40;100399.73;129941;1270;115236;-63
2023/01/21 13:46:37;;;;;;;8.70;5.40;;;;;;;1.24;82.48;100399.91;129733;1258;115507;-67
2023/01/21 13:50:08;;;;;;;10.00;6.70;;;;;;;1.24;82.48;100405.17;129611;1265;114913;-66
2023/01/21 13:53:28;;;;;;;13.60;8.60;;;;;;;1.27;82.51;100405.67;129922;1270;115312;-67
2023/01/21 13:56:55;;;;;;;11.20;7.40;;;;;;;1.29;82.51;100406.54;129860;1257;129957;-66
2023/01/21 14:00:11;;;;;;;13.60;8.70;;;;;;;1.28;82.69;100413.58;129662;1270;115362;-66
2023/01/21 14:03:20;;;;;;;11.30;7.60;;;;;;;1.30;82.74;100419.02;129662;1270;114923;-66
2023/01/21 14:06:48;;;;;;;8.90;7.10;;;;;;;1.31;82.89;100419.02;129688;1267;116476;-65
2023/01/21 14:10:13;;;;;;;10.50;7.40;;;;;;;1.33;82.41;100427.97;129805;1264;114750;-64